createdAt,value
2018-06-25T00:02:04.152Z,18.80
2018-06-25T00:04:32.597Z,18.77
2018-06-25T00:07:01.196Z,18.82
2018-06-25T00:09:29.700Z,18.88
2018-06-25T00:11:58.678Z,18.60
2018-06-25T00:14:27.274Z,18.55
2018-06-25T00:16:55.792Z,18.54
2018-06-25T00:19:24.298Z,18.53
2018-06-25T00:21:52.924Z,18.71
2018-06-25T00:24:22.136Z,18.79
2018-06-25T00:26:51.011Z,18.67
2018-06-25T00:29:19.566Z,18.69
2018-06-25T00:31:48.123Z,18.52
2018-06-25T00:34:16.656Z,18.56
2018-06-25T00:36:45.186Z,18.50
2018-06-25T00:39:13.696Z,18.52
2018-06-25T00:41:42.216Z,18.66
2018-06-25T00:44:10.693Z,18.70
2018-06-25T00:46:39.304Z,18.75
2018-06-25T00:49:07.955Z,18.65
2018-06-25T00:51:37.234Z,18.69
2018-06-25T00:54:06.308Z,18.47
2018-06-25T00:56:34.776Z,18.67
2018-06-25T00:59:14.437Z,18.70
2018-06-25T01:01:42.958Z,18.27
2018-06-25T01:04:11.440Z,18.52
2018-06-25T01:06:39.945Z,18.51
2018-06-25T01:09:10.382Z,18.51
2018-06-25T01:11:38.932Z,18.35
2018-06-25T01:14:08.593Z,18.41
2018-06-25T01:16:37.259Z,18.35
2018-06-25T01:19:05.682Z,18.47
2018-06-25T01:21:34.194Z,18.40
2018-06-25T01:24:03.165Z,18.44
2018-06-25T01:26:32.268Z,18.29
2018-06-25T01:29:00.965Z,18.40
2018-06-25T01:31:29.441Z,18.27
2018-06-25T01:33:57.993Z,18.31
2018-06-25T01:36:26.585Z,18.27
2018-06-25T01:38:55.129Z,18.31
2018-06-25T01:41:24.283Z,18.20
2018-06-25T01:43:53.277Z,18.31
2018-06-25T01:46:21.829Z,18.34
2018-06-25T01:48:50.893Z,18.30
2018-06-25T01:51:19.330Z,18.29
2018-06-25T01:53:47.850Z,18.00
2018-06-25T01:56:16.322Z,18.03
2018-06-25T01:58:44.765Z,17.95
2018-06-25T02:01:13.282Z,18.06
2018-06-25T02:03:41.852Z,18.18
2018-06-25T02:06:10.993Z,17.98
2018-06-25T02:08:43.935Z,18.03
2018-06-25T02:11:12.506Z,18.08
2018-06-25T02:13:41.033Z,18.12
2018-06-25T02:16:12.886Z,18.07
2018-06-25T02:18:41.416Z,18.02
2018-06-25T02:21:09.933Z,18.18
2018-06-25T02:23:40.762Z,18.08
2018-06-25T02:26:09.339Z,18.01
2018-06-25T02:28:38.382Z,18.10
2018-06-25T02:31:07.825Z,17.97
2018-06-25T02:33:37.312Z,17.78
2018-06-25T02:36:07.190Z,17.78
2018-06-25T02:38:35.736Z,17.79
2018-06-25T02:41:05.333Z,17.58
2018-06-25T02:43:34.139Z,17.71
2018-06-25T02:46:02.590Z,17.66
2018-06-25T02:48:31.833Z,17.76
2018-06-25T02:51:00.330Z,17.77
2018-06-25T02:53:28.834Z,17.78
2018-06-25T02:55:57.328Z,17.85
2018-06-25T02:58:25.936Z,17.77
2018-06-25T03:00:55.043Z,17.58
2018-06-25T03:03:23.648Z,17.62
2018-06-25T03:05:52.098Z,17.59
2018-06-25T03:08:20.546Z,17.64
2018-06-25T03:10:49.203Z,17.74
2018-06-25T03:13:17.712Z,17.72
2018-06-25T03:15:46.363Z,17.76
2018-06-25T03:18:15.427Z,17.71
2018-06-25T03:20:44.049Z,17.72
2018-06-25T03:23:12.662Z,17.77
2018-06-25T03:25:41.187Z,17.85
2018-06-25T03:28:09.740Z,17.79
2018-06-25T03:30:38.390Z,17.75
2018-06-25T03:33:06.855Z,17.53
2018-06-25T03:35:35.473Z,17.62
2018-06-25T03:38:03.938Z,17.66
2018-06-25T03:40:32.419Z,17.56
2018-06-25T03:43:00.880Z,17.47
2018-06-25T03:45:29.406Z,17.45
2018-06-25T03:47:57.871Z,17.46
2018-06-25T03:50:26.965Z,17.47
2018-06-25T03:52:55.473Z,17.49
2018-06-25T03:55:23.948Z,17.44
2018-06-25T03:57:53.020Z,17.45
2018-06-25T04:00:22.160Z,17.45
2018-06-25T04:02:50.659Z,17.53
2018-06-25T04:05:19.166Z,17.53
2018-06-25T04:07:47.809Z,17.61
2018-06-25T04:10:16.290Z,17.41
2018-06-25T04:12:44.855Z,17.57
2018-06-25T04:15:13.380Z,17.65
2018-06-25T04:17:41.899Z,17.71
2018-06-25T04:20:10.444Z,17.70
2018-06-25T04:22:39.052Z,17.70
2018-06-25T04:25:07.731Z,17.67
2018-06-25T04:27:36.839Z,17.68
2018-06-25T04:30:05.514Z,17.72
2018-06-25T04:32:37.271Z,17.74
2018-06-25T04:35:05.951Z,17.74
2018-06-25T04:37:36.477Z,17.81
2018-06-25T04:40:05.033Z,17.83
2018-06-25T04:42:33.504Z,17.82
2018-06-25T04:45:02.104Z,17.81
2018-06-25T04:47:30.742Z,17.88
2018-06-25T04:49:59.972Z,17.64
2018-06-25T04:52:28.693Z,17.53
2018-06-25T04:54:57.370Z,17.67
2018-06-25T04:57:26.048Z,17.67
2018-06-25T04:59:54.657Z,17.76
2018-06-25T05:02:23.958Z,17.83
2018-06-25T05:04:52.579Z,17.85
2018-06-25T05:07:21.292Z,17.72
2018-06-25T05:09:49.874Z,17.67
2018-06-25T05:12:18.344Z,17.81
2018-06-25T05:14:48.228Z,17.87
2018-06-25T05:17:16.673Z,17.97
2018-06-25T05:19:46.228Z,18.00
2018-06-25T05:22:14.910Z,18.00
2018-06-25T05:24:43.493Z,18.00
2018-06-25T05:27:12.089Z,18.01
2018-06-25T05:29:40.551Z,18.07
2018-06-25T05:32:09.205Z,18.04
2018-06-25T05:34:38.487Z,17.87
2018-06-25T05:37:07.024Z,17.75
2018-06-25T05:39:35.903Z,17.71
2018-06-25T05:42:05.940Z,17.66
2018-06-25T05:44:34.549Z,17.62
2018-06-25T05:47:03.117Z,17.60
2018-06-25T05:49:36.334Z,17.65
2018-06-25T05:52:04.861Z,17.74
2018-06-25T05:54:33.417Z,17.84
2018-06-25T05:57:01.922Z,17.87
2018-06-25T05:59:30.993Z,17.85
2018-06-25T06:01:59.497Z,17.88
2018-06-25T06:04:28.059Z,17.74
2018-06-25T06:06:56.528Z,17.77
2018-06-25T06:09:25.228Z,17.73
2018-06-25T06:11:53.870Z,17.79
2018-06-25T06:14:22.930Z,17.96
2018-06-25T06:16:53.103Z,18.12
2018-06-25T06:19:21.594Z,18.23
2018-06-25T06:21:50.433Z,18.42
2018-06-25T06:24:18.942Z,18.56
2018-06-25T06:26:48.459Z,18.66
2018-06-25T06:29:17.154Z,18.68
2018-06-25T06:31:46.049Z,18.54
2018-06-25T06:34:14.546Z,18.62
2018-06-25T06:36:43.092Z,18.79
2018-06-25T06:39:15.440Z,18.77
2018-06-25T06:41:45.413Z,19.04
2018-06-25T06:44:14.441Z,18.89
2018-06-25T06:46:42.956Z,19.16
2018-06-25T06:49:12.148Z,19.10
2018-06-25T06:51:40.835Z,19.18
2018-06-25T06:54:09.839Z,19.30
2018-06-25T06:56:38.492Z,19.36
2018-06-25T06:59:06.975Z,19.31
2018-06-25T07:01:35.636Z,19.00
2018-06-25T07:04:04.222Z,19.03
2018-06-25T07:06:33.167Z,19.11
2018-06-25T07:09:01.694Z,19.05
2018-06-25T07:11:30.226Z,19.22
2018-06-25T07:13:58.800Z,19.25
2018-06-25T07:16:27.473Z,19.58
2018-06-25T07:18:57.225Z,19.51
2018-06-25T07:21:25.931Z,19.59
2018-06-25T07:23:55.162Z,19.50
2018-06-25T07:26:26.062Z,19.57
2018-06-25T07:28:56.126Z,19.72
2018-06-25T07:31:25.876Z,19.21
2018-06-25T07:33:54.814Z,19.32
2018-06-25T07:36:25.044Z,19.41
2018-06-25T07:38:53.545Z,19.76
2018-06-25T07:41:22.146Z,19.77
2018-06-25T07:43:50.765Z,19.83
2018-06-25T07:46:19.278Z,19.65
2018-06-25T07:48:47.739Z,19.54
2018-06-25T07:51:16.350Z,19.31
2018-06-25T07:53:44.849Z,19.51
2018-06-25T07:56:13.754Z,19.47
2018-06-25T07:58:42.466Z,19.03
2018-06-25T08:01:10.989Z,19.28
2018-06-25T08:03:39.619Z,19.44
2018-06-25T08:06:08.903Z,19.41
2018-06-25T08:08:37.416Z,19.68
2018-06-25T08:11:05.911Z,19.98
2018-06-25T08:13:34.507Z,20.20
2018-06-25T08:16:03.108Z,20.32
2018-06-25T08:18:31.582Z,20.32
2018-06-25T08:21:00.069Z,20.11
2018-06-25T08:23:29.195Z,20.12
2018-06-25T08:25:57.914Z,19.96
2018-06-25T08:28:27.006Z,19.55
2018-06-25T08:30:59.582Z,19.35
2018-06-25T08:33:28.795Z,19.39
2018-06-25T08:35:57.330Z,19.17
2018-06-25T08:38:25.847Z,19.21
2018-06-25T08:40:55.480Z,19.50
2018-06-25T08:43:24.823Z,19.53
2018-06-25T08:45:53.732Z,19.65
2018-06-25T08:48:22.233Z,19.67
2018-06-25T08:50:54.582Z,19.70
2018-06-25T08:53:23.173Z,19.63
2018-06-25T08:55:52.693Z,19.95
2018-06-25T08:58:21.283Z,20.54
2018-06-25T09:00:49.769Z,20.95
2018-06-25T09:03:18.384Z,21.05
2018-06-25T09:05:47.362Z,21.22
2018-06-25T09:08:16.528Z,21.18
2018-06-25T09:10:45.037Z,21.47
2018-06-25T09:13:14.019Z,21.43
2018-06-25T09:15:42.543Z,21.51
2018-06-25T09:18:12.241Z,21.09
2018-06-25T09:20:41.575Z,21.34
2018-06-25T09:23:10.047Z,21.52
2018-06-25T09:25:38.581Z,22.05
2018-06-25T09:28:07.370Z,22.09
2018-06-25T09:30:36.549Z,22.24
2018-06-25T09:33:05.093Z,22.35
2018-06-25T09:35:33.734Z,22.50
2018-06-25T09:38:03.319Z,22.85
2018-06-25T09:40:32.342Z,23.04
2018-06-25T09:43:01.318Z,22.88
2018-06-25T09:45:29.876Z,23.11
2018-06-25T09:47:58.425Z,23.22
2018-06-25T09:50:27.005Z,23.03
2018-06-25T09:52:55.544Z,22.90
2018-06-25T09:55:24.116Z,23.08
2018-06-25T09:57:52.650Z,22.97
2018-06-25T10:00:26.454Z,23.14
2018-06-25T10:02:54.885Z,23.01
2018-06-25T10:05:24.221Z,23.61
2018-06-25T10:07:52.898Z,23.56
2018-06-25T10:10:21.959Z,23.41
2018-06-25T10:12:50.465Z,23.48
2018-06-25T10:15:19.288Z,22.90
2018-06-25T10:17:48.094Z,23.38
2018-06-25T10:20:16.685Z,23.77
2018-06-25T10:22:45.258Z,24.12
2018-06-25T10:25:13.809Z,24.17
2018-06-25T10:27:42.298Z,24.03
2018-06-25T10:30:10.775Z,24.34
2018-06-25T10:32:39.358Z,24.54
2018-06-25T10:35:07.850Z,23.98
2018-06-25T10:37:36.316Z,24.45
2018-06-25T10:40:05.601Z,24.13
2018-06-25T10:42:34.625Z,23.74
2018-06-25T10:45:03.428Z,24.04
2018-06-25T10:47:31.960Z,23.79
2018-06-25T10:50:00.432Z,22.87
2018-06-25T10:52:29.057Z,23.44
2018-06-25T10:54:57.636Z,23.05
2018-06-25T10:57:26.277Z,23.20
2018-06-25T10:59:54.971Z,23.42
2018-06-25T11:02:23.367Z,23.45
2018-06-25T11:04:52.464Z,23.76
2018-06-25T11:07:21.158Z,23.97
2018-06-25T11:09:50.072Z,23.88
2018-06-25T11:12:18.661Z,23.94
2018-06-25T11:14:47.120Z,24.29
2018-06-25T11:17:15.700Z,24.44
2018-06-25T11:19:45.835Z,23.76
2018-06-25T11:22:14.452Z,23.57
2018-06-25T11:24:43.080Z,23.54
2018-06-25T11:27:11.794Z,24.01
2018-06-25T11:29:40.317Z,24.13
2018-06-25T11:32:10.139Z,23.94
2018-06-25T11:34:38.754Z,23.37
2018-06-25T11:37:07.226Z,23.17
2018-06-25T11:39:36.715Z,23.55
2018-06-25T11:42:05.292Z,23.81
2018-06-25T11:44:33.899Z,23.93
2018-06-25T11:47:02.579Z,24.19
2018-06-25T11:49:31.090Z,24.42
2018-06-25T11:51:59.649Z,24.23
2018-06-25T11:54:28.154Z,24.34
2018-06-25T11:56:56.651Z,24.14
2018-06-25T11:59:25.170Z,24.39
2018-06-25T12:01:53.713Z,24.49
2018-06-25T12:04:24.017Z,24.55
2018-06-25T12:06:52.601Z,23.87
2018-06-25T12:09:21.251Z,24.18
2018-06-25T12:11:50.111Z,24.49
2018-06-25T12:14:18.621Z,24.47
2018-06-25T12:16:48.023Z,24.57
2018-06-25T12:19:17.008Z,24.73
2018-06-25T12:21:45.519Z,24.20
2018-06-25T12:24:13.972Z,24.45
2018-06-25T12:26:42.569Z,24.69
2018-06-25T12:29:11.129Z,24.84
2018-06-25T12:31:39.754Z,24.92
2018-06-25T12:34:08.259Z,24.64
2018-06-25T12:36:36.817Z,24.64
2018-06-25T12:39:08.432Z,24.43
2018-06-25T12:41:36.963Z,24.53
2018-06-25T12:44:06.172Z,24.88
2018-06-25T12:46:34.935Z,25.22
2018-06-25T12:49:03.535Z,25.32
2018-06-25T12:51:32.930Z,25.26
2018-06-25T12:54:01.472Z,25.37
2018-06-25T12:56:30.105Z,26.45
2018-06-25T12:58:58.643Z,26.46
2018-06-25T13:01:27.958Z,25.78
2018-06-25T13:03:56.511Z,25.63
2018-06-25T13:06:25.096Z,26.26
2018-06-25T13:08:54.014Z,26.66
2018-06-25T13:11:22.954Z,28.43
2018-06-25T13:13:52.271Z,30.19
2018-06-25T13:16:20.874Z,30.02
2018-06-25T13:18:49.343Z,29.07
2018-06-25T13:21:18.185Z,28.83
2018-06-25T13:23:47.066Z,30.00
2018-06-25T13:26:15.746Z,30.67
2018-06-25T13:28:44.343Z,31.07
2018-06-25T13:31:13.412Z,29.32
2018-06-25T13:33:42.603Z,29.51
2018-06-25T13:36:11.118Z,28.56
2018-06-25T13:38:40.609Z,27.43
2018-06-25T13:41:09.200Z,27.08
2018-06-25T13:43:39.104Z,26.99
2018-06-25T13:46:09.206Z,27.84
2018-06-25T13:48:37.865Z,29.11
2018-06-25T13:51:06.497Z,29.93
2018-06-25T13:53:35.316Z,30.00
2018-06-25T13:56:03.901Z,30.51
2018-06-25T13:58:33.513Z,30.84
2018-06-25T14:01:02.080Z,30.77
2018-06-25T14:03:30.599Z,30.07
2018-06-25T14:05:59.300Z,28.05
2018-06-25T14:08:27.780Z,28.41
2018-06-25T14:10:56.350Z,26.86
2018-06-25T14:13:25.820Z,27.95
2018-06-25T14:15:54.398Z,27.95
2018-06-25T14:18:23.634Z,27.58
2018-06-25T14:20:52.138Z,27.69
2018-06-25T14:23:20.686Z,27.52
2018-06-25T14:25:54.919Z,26.66
2018-06-25T14:28:28.574Z,26.14
2018-06-25T14:31:02.426Z,26.06
2018-06-25T14:33:36.734Z,26.74
2018-06-25T14:36:06.101Z,27.08
2018-06-25T14:38:34.662Z,27.48
2018-06-25T14:41:05.408Z,27.38
2018-06-25T14:43:35.897Z,27.60
2018-06-25T14:46:04.963Z,27.29
2018-06-25T14:48:34.005Z,27.48
2018-06-25T14:51:03.007Z,27.87
2018-06-25T14:53:31.546Z,28.41
2018-06-25T14:56:00.107Z,28.07
2018-06-25T14:58:28.994Z,28.07
2018-06-25T15:00:57.683Z,27.56
2018-06-25T15:03:26.167Z,28.32
2018-06-25T15:05:56.062Z,28.24
2018-06-25T15:08:25.969Z,27.86
2018-06-25T15:10:55.826Z,27.70
2018-06-25T15:13:25.740Z,28.14
2018-06-25T15:15:55.692Z,28.03
2018-06-25T15:18:26.466Z,27.74
2018-06-25T15:20:57.246Z,27.35
2018-06-25T15:23:26.764Z,27.58
2018-06-25T15:25:56.172Z,27.53
2018-06-25T15:28:25.897Z,27.82
2018-06-25T15:30:56.708Z,27.74
2018-06-25T15:33:26.672Z,27.13
2018-06-25T15:35:56.608Z,27.01
2018-06-25T15:38:26.440Z,27.15
2018-06-25T15:40:57.194Z,27.01
2018-06-25T15:43:25.754Z,26.81
2018-06-25T15:45:55.231Z,26.62
2018-06-25T15:48:24.038Z,26.51
2018-06-25T15:50:52.566Z,26.11
2018-06-25T15:53:21.999Z,26.02
2018-06-25T15:55:50.586Z,25.93
2018-06-25T15:58:19.088Z,25.89
2018-06-25T16:00:48.589Z,26.00
2018-06-25T16:03:17.129Z,25.99
2018-06-25T16:05:45.932Z,25.97
2018-06-25T16:08:15.040Z,25.85
2018-06-25T16:10:44.413Z,25.94
2018-06-25T16:13:13.386Z,25.80
2018-06-25T16:15:42.980Z,25.78
2018-06-25T16:18:11.641Z,25.60
2018-06-25T16:20:40.119Z,25.46
2018-06-25T16:23:08.711Z,25.58
2018-06-25T16:25:37.293Z,25.54
2018-06-25T16:28:06.291Z,25.54
2018-06-25T16:30:34.852Z,25.55
2018-06-25T16:33:03.593Z,25.36
2018-06-25T16:35:32.353Z,25.37
2018-06-25T16:38:01.427Z,25.18
2018-06-25T16:40:30.385Z,25.42
2018-06-25T16:42:58.978Z,25.27
2018-06-25T16:45:27.610Z,24.83
2018-06-25T16:47:56.225Z,24.62
2018-06-25T16:50:24.840Z,24.79
2018-06-25T16:52:53.364Z,24.83
2018-06-25T16:55:22.635Z,24.60
2018-06-25T16:57:51.714Z,24.56
2018-06-25T17:00:20.684Z,24.51
2018-06-25T17:02:49.963Z,24.27
2018-06-25T17:05:18.606Z,24.12
2018-06-25T17:07:47.199Z,24.29
2018-06-25T17:10:15.772Z,24.31
2018-06-25T17:12:44.667Z,24.28
2018-06-25T17:15:13.178Z,24.29
2018-06-25T17:17:42.180Z,24.20
2018-06-25T17:20:11.158Z,23.91
2018-06-25T17:22:41.897Z,23.88
2018-06-25T17:25:10.755Z,23.92
2018-06-25T17:27:39.357Z,23.90
2018-06-25T17:30:08.287Z,23.86
2018-06-25T17:32:36.968Z,23.70
2018-06-25T17:35:05.552Z,23.49
2018-06-25T17:37:34.556Z,23.58
2018-06-25T17:40:03.879Z,23.55
2018-06-25T17:42:32.798Z,23.42
2018-06-25T17:45:01.298Z,23.58
2018-06-25T17:47:30.105Z,23.52
2018-06-25T17:49:58.642Z,23.49
2018-06-25T17:52:27.202Z,23.51
2018-06-25T17:54:55.693Z,23.42
2018-06-25T17:57:24.223Z,23.42
2018-06-25T17:59:52.994Z,23.42
2018-06-25T18:02:21.546Z,23.54
2018-06-25T18:04:50.053Z,23.46
2018-06-25T18:07:18.627Z,23.56
2018-06-25T18:09:47.166Z,23.54
2018-06-25T18:12:17.647Z,23.52
2018-06-25T18:14:46.326Z,23.60
2018-06-25T18:17:14.878Z,23.54
2018-06-25T18:19:43.409Z,23.39
2018-06-25T18:22:11.960Z,23.25
2018-06-25T18:24:40.557Z,23.42
2018-06-25T18:27:09.076Z,23.23
2018-06-25T18:29:37.653Z,23.25
2018-06-25T18:32:06.357Z,23.36
2018-06-25T18:34:35.984Z,23.30
2018-06-25T18:37:04.824Z,23.24
2018-06-25T18:39:33.321Z,23.32
2018-06-25T18:42:02.153Z,23.19
2018-06-25T18:44:30.793Z,23.08
2018-06-25T18:46:59.436Z,22.85
2018-06-25T18:49:28.336Z,22.90
2018-06-25T18:51:57.469Z,22.96
2018-06-25T18:54:26.088Z,22.67
2018-06-25T18:56:55.529Z,22.71
2018-06-25T18:59:24.499Z,22.82
2018-06-25T19:01:52.730Z,22.58
2018-06-25T19:04:21.361Z,22.70
2018-06-25T19:06:51.653Z,22.80
2018-06-25T19:09:22.888Z,22.71
2018-06-25T19:11:53.701Z,22.51
2018-06-25T19:14:24.778Z,22.49
2018-06-25T19:16:55.662Z,22.44
2018-06-25T19:19:27.680Z,22.50
2018-06-25T19:21:58.710Z,22.41
2018-06-25T19:24:28.581Z,22.24
2018-06-25T19:26:59.451Z,22.14
2018-06-25T19:29:28.520Z,22.25
2018-06-25T19:31:58.845Z,22.21
2018-06-25T19:34:30.306Z,22.21
2018-06-25T19:37:01.188Z,22.12
2018-06-25T19:39:31.968Z,22.11
2018-06-25T19:42:02.836Z,22.10
2018-06-25T19:44:33.628Z,21.90
2018-06-25T19:47:06.026Z,21.88
2018-06-25T19:49:37.434Z,21.85
2018-06-25T19:52:09.174Z,21.81
2018-06-25T19:54:40.333Z,21.88
2018-06-25T19:57:11.247Z,21.79
2018-06-25T19:59:43.001Z,21.78
2018-06-25T20:02:13.732Z,21.70
2018-06-25T20:04:44.218Z,21.69
2018-06-25T20:07:12.749Z,21.66
2018-06-25T20:09:43.638Z,21.63
2018-06-25T20:12:14.317Z,21.87
2018-06-25T20:14:45.436Z,21.74
2018-06-25T20:17:15.925Z,21.59
2018-06-25T20:19:47.892Z,21.51
2018-06-25T20:22:18.337Z,21.44
2018-06-25T20:24:51.233Z,21.35
2018-06-25T20:27:23.401Z,21.32
2018-06-25T20:29:55.350Z,21.15
2018-06-25T20:32:23.978Z,21.20
2018-06-25T20:34:55.217Z,21.17
2018-06-25T20:37:25.806Z,21.12
2018-06-25T20:39:57.921Z,21.11
2018-06-25T20:42:28.725Z,21.06
2018-06-25T20:45:00.606Z,20.96
2018-06-25T20:47:31.985Z,20.82
2018-06-25T20:50:03.519Z,20.84
2018-06-25T20:52:34.433Z,20.74
2018-06-25T20:55:05.008Z,20.73
2018-06-25T20:57:34.246Z,20.66
2018-06-25T21:00:05.555Z,20.61
2018-06-25T21:02:36.319Z,20.51
2018-06-25T21:05:07.303Z,20.49
2018-06-25T21:07:38.033Z,20.49
2018-06-25T21:10:07.996Z,20.51
2018-06-25T21:12:39.829Z,20.53
2018-06-25T21:15:10.701Z,20.43
2018-06-25T21:17:41.558Z,20.38
2018-06-25T21:20:12.930Z,20.17
2018-06-25T21:22:43.676Z,20.04
2018-06-25T21:25:15.876Z,20.15
2018-06-25T21:27:47.392Z,20.24
2018-06-25T21:30:18.099Z,20.23
2018-06-25T21:32:50.719Z,20.24
2018-06-25T21:35:20.968Z,20.20
2018-06-25T21:37:53.276Z,20.21
2018-06-25T21:40:24.798Z,20.21
2018-06-25T21:42:58.154Z,20.17
2018-06-25T21:45:28.761Z,20.13
2018-06-25T21:47:59.841Z,20.10
2018-06-25T21:50:30.484Z,19.96
2018-06-25T21:53:02.518Z,19.88
2018-06-25T21:55:33.057Z,19.91
2018-06-25T21:58:04.330Z,19.74
2018-06-25T22:00:46.078Z,19.58
2018-06-25T22:03:17.584Z,19.49
2018-06-25T22:05:50.004Z,19.51
2018-06-25T22:08:20.948Z,19.60
2018-06-25T22:10:51.594Z,19.55
2018-06-25T22:13:23.897Z,19.49
2018-06-25T22:15:54.534Z,19.39
2018-06-25T22:18:26.809Z,19.30
2018-06-25T22:20:58.087Z,19.16
2018-06-25T22:23:30.630Z,18.99
2018-06-25T22:26:01.214Z,18.82
2018-06-25T22:28:31.917Z,18.66
2018-06-25T22:31:04.731Z,18.66
2018-06-25T22:33:36.073Z,18.82
2018-06-25T22:36:09.175Z,18.56
2018-06-25T22:38:40.555Z,18.35
2018-06-25T22:41:12.248Z,18.32
2018-06-25T22:43:43.804Z,18.23
2018-06-25T22:46:14.725Z,18.36
2018-06-25T22:48:45.120Z,18.39
2018-06-25T22:51:16.129Z,18.29
2018-06-25T22:53:47.100Z,18.15
2018-06-25T22:56:17.916Z,18.13
2018-06-25T22:58:50.131Z,18.14
2018-06-25T23:01:20.889Z,18.03
2018-06-25T23:03:52.404Z,18.09
2018-06-25T23:06:30.894Z,18.17
2018-06-25T23:09:03.473Z,18.12
2018-06-25T23:11:39.890Z,18.10
2018-06-25T23:14:11.033Z,18.03
2018-06-25T23:16:41.817Z,18.00
2018-06-25T23:19:13.681Z,18.01
2018-06-25T23:21:46.144Z,17.85
2018-06-25T23:24:17.188Z,17.84
2018-06-25T23:26:47.634Z,17.49
2018-06-25T23:29:18.631Z,17.30
2018-06-25T23:31:49.791Z,17.55
2018-06-25T23:34:20.915Z,17.63
2018-06-25T23:36:51.659Z,17.77
2018-06-25T23:39:22.430Z,17.60
2018-06-25T23:41:54.520Z,17.73
2018-06-25T23:44:27.352Z,17.69
2018-06-25T23:46:59.556Z,17.78
2018-06-25T23:49:31.227Z,17.62
2018-06-25T23:52:03.754Z,17.61
2018-06-25T23:54:34.512Z,17.70
2018-06-25T23:57:08.217Z,17.64
2018-06-25T23:59:39.033Z,17.61
